Time;durP1;ratioP1;P1;durP2;ratioP2;P2;SDS_P1;SDS_P2;PMS_P1;PMS_P2;Temp;Humidity;BMP_temperature;BMP_pressure;BME280_temperature;BME280_humidity;BME280_pressure;Samples;Min_cycle;Max_cycle;Signal;HPM_P1;HPM_P2
2022/05/20 00:00:27;;;;;;;3.22;1.10;;;22.20;84.70;;;;;;6274306;28;20549;-85
2022/05/20 00:03:31;;;;;;;2.97;1.30;;;22.20;84.90;;;;;;6255423;28;20072;-84
2022/05/20 00:06:33;;;;;;;4.53;1.40;;;22.20;85.10;;;;;;6253789;28;20045;-84
2022/05/20 00:09:34;;;;;;;8.82;1.45;;;22.10;85.40;;;;;;6265719;28;20045;-85
2022/05/20 00:12:38;;;;;;;3.25;1.63;;;22.10;86.40;;;;;;6274375;28;20048;-84
2022/05/20 00:15:40;;;;;;;1.95;1.10;;;22.10;86.40;;;;;;6277367;28;20123;-82
2022/05/20 00:18:42;;;;;;;2.45;1.10;;;22.00;86.40;;;;;;6277843;28;20504;-86
2022/05/20 00:21:44;;;;;;;5.53;1.67;;;22.00;86.60;;;;;;6299953;28;20084;-83
2022/05/20 00:28:07;;;;;;;4.60;1.77;;;21.90;86.40;;;;;;6280968;28;20504;-85
2022/05/20 00:31:11;;;;;;;2.60;1.08;;;21.90;86.30;;;;;;6280181;28;20041;-86
2022/05/20 00:34:13;;;;;;;2.70;1.27;;;21.90;86.50;;;;;;6280684;28;20065;-85
2022/05/20 00:37:14;;;;;;;5.38;1.30;;;21.90;86.70;;;;;;6281168;28;20056;-85
2022/05/20 00:40:20;;;;;;;10.48;1.95;;;21.80;87.00;;;;;;6278477;28;20059;-82
2022/05/20 00:43:36;;;;;;;4.80;1.35;;;21.70;87.10;;;;;;6279004;28;20049;-84
2022/05/20 00:46:38;;;;;;;3.10;1.20;;;21.60;87.90;;;;;;6269905;28;20051;-83
2022/05/20 00:49:44;;;;;;;1.88;1.20;;;21.50;88.30;;;;;;6277870;28;20488;-84
2022/05/20 00:52:49;;;;;;;2.53;1.27;;;21.40;88.90;;;;;;6279011;28;20048;-83
2022/05/20 00:55:51;;;;;;;2.08;1.33;;;21.30;89.30;;;;;;6277391;28;20067;-85
2022/05/20 00:58:55;;;;;;;3.00;1.63;;;21.20;89.80;;;;;;6277356;28;20128;-84
2022/05/20 01:02:01;;;;;;;2.17;1.40;;;21.20;90.00;;;;;;6277043;28;20171;-85
2022/05/20 01:05:06;;;;;;;2.75;1.38;;;21.00;90.00;;;;;;6276348;28;20053;-84
2022/05/20 01:08:12;;;;;;;3.90;1.52;;;21.00;90.00;;;;;;6276517;28;20703;-84
2022/05/20 01:11:14;;;;;;;2.03;1.02;;;20.90;90.20;;;;;;6275798;28;20423;-84
2022/05/20 01:14:21;;;;;;;2.53;1.40;;;20.90;90.30;;;;;;6275599;28;20040;-84
2022/05/20 01:17:23;;;;;;;1.77;1.30;;;20.80;90.50;;;;;;6276205;28;20551;-84
2022/05/20 01:20:28;;;;;;;3.92;1.52;;;20.70;90.60;;;;;;6275443;28;20037;-84
2022/05/20 01:23:34;;;;;;;10.40;1.60;;;20.60;90.90;;;;;;6275948;28;20122;-83
2022/05/20 01:26:36;;;;;;;2.78;1.30;;;20.50;91.00;;;;;;6276478;28;20044;-84
2022/05/20 01:29:38;;;;;;;2.83;1.27;;;20.50;91.10;;;;;;6274971;28;20052;-83
2022/05/20 01:32:40;;;;;;;3.20;1.80;;;20.40;91.30;;;;;;6276106;28;20055;-83
2022/05/20 01:35:44;;;;;;;2.50;1.15;;;20.30;91.30;;;;;;6275059;28;20044;-84
2022/05/20 01:38:49;;;;;;;3.92;1.52;;;20.30;91.20;;;;;;6274621;28;20056;-80
2022/05/20 01:41:57;;;;;;;1.50;1.23;;;20.20;91.30;;;;;;6274638;28;20087;-84
2022/05/20 01:45:02;;;;;;;4.03;1.40;;;20.20;91.40;;;;;;6275526;28;20049;-82
2022/05/20 01:48:11;;;;;;;5.85;1.98;;;20.20;91.50;;;;;;6274614;28;20055;-82
2022/05/20 01:51:17;;;;;;;3.65;1.50;;;20.20;91.50;;;;;;6274588;28;20041;-82
2022/05/20 01:54:28;;;;;;;3.63;1.45;;;20.10;91.70;;;;;;6274771;28;20049;-83
2022/05/20 01:57:34;;;;;;;1.95;1.50;;;20.00;91.90;;;;;;6275953;28;20132;-84
2022/05/20 02:00:39;;;;;;;2.85;1.63;;;19.90;92.00;;;;;;6274086;28;20048;-84
2022/05/20 02:03:46;;;;;;;2.22;1.60;;;19.90;92.30;;;;;;6272824;28;20532;-81
2022/05/20 02:06:53;;;;;;;3.38;1.40;;;19.90;92.50;;;;;;6273733;28;20037;-82
2022/05/20 02:10:02;;;;;;;5.07;1.40;;;19.80;92.50;;;;;;6273451;28;20048;-82
2022/05/20 02:13:07;;;;;;;3.47;1.50;;;19.70;92.50;;;;;;6274442;28;20382;-85
2022/05/20 02:16:12;;;;;;;1.85;1.40;;;19.70;92.60;;;;;;6274776;28;20048;-81
2022/05/20 02:19:18;;;;;;;4.28;1.88;;;19.70;92.60;;;;;;6280314;28;20060;-83
2022/05/20 02:22:24;;;;;;;3.35;1.60;;;19.70;92.70;;;;;;6288597;28;20068;-84
2022/05/20 02:25:30;;;;;;;3.30;1.33;;;19.70;92.70;;;;;;6284860;28;20049;-83
2022/05/20 02:28:35;;;;;;;2.63;1.85;;;19.70;92.80;;;;;;6281956;28;20064;-83
2022/05/20 02:31:45;;;;;;;2.22;1.85;;;19.70;92.80;;;;;;6281920;28;20059;-84
2022/05/20 02:34:46;;;;;;;3.38;1.30;;;19.70;92.70;;;;;;6282222;28;20040;-83
2022/05/20 02:37:48;;;;;;;4.25;1.75;;;19.70;92.70;;;;;;6281119;28;20049;-81
2022/05/20 02:40:53;;;;;;;7.43;1.83;;;19.80;92.60;;;;;;6281625;28;20045;-83
2022/05/20 02:43:55;;;;;;;2.60;1.38;;;19.80;92.60;;;;;;6281563;28;20049;-84
2022/05/20 02:46:56;;;;;;;3.70;1.63;;;19.80;92.60;;;;;;6280475;28;20526;-82
2022/05/20 02:49:58;;;;;;;4.10;1.13;;;19.90;92.50;;;;;;6280272;28;20546;-84
2022/05/20 02:53:01;;;;;;;6.57;1.80;;;20.00;92.60;;;;;;6281484;28;20138;-82
2022/05/20 02:56:05;;;;;;;4.72;2.00;;;19.90;92.60;;;;;;6280711;28;20052;-83
2022/05/20 03:05:45;;;;;;;3.90;1.67;;;19.90;92.70;;;;;;6280914;28;20040;-82
2022/05/20 03:08:47;;;;;;;3.10;1.50;;;19.90;92.60;;;;;;6280971;28;20167;-83
2022/05/20 03:11:50;;;;;;;3.03;1.48;;;19.90;92.60;;;;;;6280559;28;20124;-82
2022/05/20 03:14:52;;;;;;;3.42;2.35;;;19.90;92.60;;;;;;6280036;28;20527;-81
2022/05/20 03:17:53;;;;;;;4.63;1.70;;;19.90;92.70;;;;;;6262133;28;20061;-83
2022/05/20 03:20:55;;;;;;;2.97;1.90;;;19.80;92.70;;;;;;6256012;28;20140;-82
2022/05/20 03:23:59;;;;;;;2.60;1.77;;;19.80;92.80;;;;;;6255849;28;20050;-82
2022/05/20 03:27:03;;;;;;;3.55;2.10;;;19.80;93.00;;;;;;6255254;28;20042;-83
2022/05/20 03:30:06;;;;;;;5.57;1.65;;;19.80;93.00;;;;;;6254227;28;20122;-82
2022/05/20 03:33:08;;;;;;;4.95;1.50;;;19.70;93.10;;;;;;6255611;28;20092;-84
2022/05/20 03:36:10;;;;;;;2.28;1.42;;;19.80;93.10;;;;;;6255225;28;20045;-83
2022/05/20 03:39:14;;;;;;;2.20;1.60;;;19.80;93.10;;;;;;6254742;28;20045;-83
2022/05/20 03:42:17;;;;;;;3.33;1.95;;;19.90;92.90;;;;;;6255007;28;20124;-84
2022/05/20 03:45:19;;;;;;;4.43;2.25;;;19.80;92.70;;;;;;6255130;28;20534;-83
2022/05/20 03:48:22;;;;;;;5.43;1.45;;;19.80;92.90;;;;;;6255692;28;20067;-81
2022/05/20 03:51:23;;;;;;;10.55;2.55;;;19.80;93.00;;;;;;6260045;28;20042;-83
2022/05/20 03:54:29;;;;;;;4.70;1.92;;;19.80;93.10;;;;;;6276533;28;20069;-81
2022/05/20 03:57:32;;;;;;;2.42;1.67;;;19.70;93.00;;;;;;6266767;28;20140;-86
2022/05/20 04:01:56;;;;;;;3.42;1.92;;;19.70;93.00;;;;;;6256827;28;20065;-85
2022/05/20 04:03:56;;;;;;;2.47;1.30;;;19.60;93.10;;;;;;6257043;28;20049;-85
2022/05/20 04:06:59;;;;;;;6.07;1.73;;;19.70;93.20;;;;;;6256828;28;20053;-85
2022/05/20 04:10:01;;;;;;;4.82;2.08;;;19.70;93.20;;;;;;6256405;28;20096;-84
2022/05/20 04:13:04;;;;;;;8.13;2.55;;;19.60;93.20;;;;;;6255739;28;20049;-84
2022/05/20 04:16:06;;;;;;;8.13;1.77;;;19.60;93.20;;;;;;6257783;28;20056;-86
2022/05/20 04:19:08;;;;;;;4.88;2.08;;;19.60;93.20;;;;;;6280334;28;20103;-85
2022/05/20 04:22:12;;;;;;;5.40;2.15;;;19.60;93.20;;;;;;6279726;28;20119;-84
2022/05/20 04:25:13;;;;;;;6.32;2.20;;;19.60;93.20;;;;;;6280278;28;20485;-83
2022/05/20 04:28:17;;;;;;;6.47;2.28;;;19.70;93.30;;;;;;6280001;28;20415;-85
2022/05/20 04:31:18;;;;;;;5.05;1.80;;;19.70;93.40;;;;;;6279194;28;20044;-86
2022/05/20 04:34:21;;;;;;;2.55;1.75;;;19.80;93.30;;;;;;6279742;28;20131;-85
2022/05/20 04:37:23;;;;;;;5.70;1.90;;;19.90;93.20;;;;;;6279431;28;20136;-86
2022/05/20 04:40:24;;;;;;;3.13;2.00;;;20.20;92.90;;;;;;6278438;28;20045;-85
2022/05/20 04:46:59;;;;;;;3.20;1.90;;;20.70;92.30;;;;;;6279776;28;20053;-84
2022/05/20 04:50:01;;;;;;;6.57;1.55;;;20.80;91.90;;;;;;6278499;28;20155;-84
2022/05/20 04:53:03;;;;;;;9.77;2.47;;;21.10;91.60;;;;;;6278645;28;20049;-84
2022/05/20 04:56:04;;;;;;;4.95;2.72;;;21.40;91.20;;;;;;6278327;28;20076;-85
2022/05/20 04:59:07;;;;;;;2.72;1.77;;;21.70;90.80;;;;;;6277976;28;20051;-84
2022/05/20 05:02:09;;;;;;;2.92;1.70;;;22.20;90.20;;;;;;6277712;28;20518;-85
2022/05/20 05:05:14;;;;;;;6.30;2.03;;;22.40;89.30;;;;;;6279950;28;20049;-83
2022/05/20 05:08:17;;;;;;;5.45;2.17;;;22.60;88.40;;;;;;6277993;28;20045;-85
2022/05/20 05:11:20;;;;;;;4.28;2.08;;;23.10;87.40;;;;;;6277008;28;20052;-84
2022/05/20 05:14:23;;;;;;;6.22;2.70;;;23.60;85.70;;;;;;6277851;28;20050;-85
2022/05/20 05:20:48;;;;;;;4.95;2.10;;;25.10;81.30;;;;;;6278043;28;20045;-86
2022/05/20 05:23:50;;;;;;;10.48;2.58;;;26.20;78.90;;;;;;6276957;28;20114;-85
2022/05/20 05:26:51;;;;;;;4.75;2.40;;;27.30;75.80;;;;;;6277521;28;20075;-86
2022/05/20 05:29:55;;;;;;;7.45;2.30;;;27.70;73.80;;;;;;6277576;28;20072;-84
2022/05/20 05:32:56;;;;;;;6.18;2.30;;;28.30;72.40;;;;;;6277310;28;20130;-86
2022/05/20 05:35:58;;;;;;;8.77;2.90;;;28.90;70.60;;;;;;6276561;28;20048;-84
2022/05/20 05:39:00;;;;;;;8.02;3.50;;;29.20;69.30;;;;;;6275548;28;20053;-84
2022/05/20 05:42:02;;;;;;;8.63;2.80;;;30.10;67.30;;;;;;6275962;28;20123;-84
2022/05/20 05:45:06;;;;;;;3.67;2.35;;;31.50;63.70;;;;;;6275803;28;20061;-86
2022/05/20 05:48:10;;;;;;;6.00;2.80;;;33.00;58.60;;;;;;6278383;28;20095;-86
2022/05/20 05:51:12;;;;;;;9.75;3.28;;;34.30;54.50;;;;;;6279072;28;20067;-82
2022/05/20 05:54:13;;;;;;;5.32;2.40;;;35.20;51.70;;;;;;6275741;28;20047;-84
2022/05/20 05:57:15;;;;;;;8.80;2.10;;;36.10;49.20;;;;;;6274746;28;20049;-83
2022/05/20 06:00:19;;;;;;;6.55;2.97;;;36.60;47.20;;;;;;6297900;23;20068;-82
2022/05/20 06:03:21;;;;;;;5.20;2.60;;;37.10;45.70;;;;;;6227611;28;20069;-81
2022/05/20 06:06:23;;;;;;;10.52;3.20;;;37.50;44.60;;;;;;6229403;28;20052;-82
2022/05/20 06:09:25;;;;;;;4.75;1.98;;;37.90;43.80;;;;;;6228781;28;20042;-81
2022/05/20 06:12:27;;;;;;;6.95;2.75;;;38.20;43.30;;;;;;6228876;28;20064;-82
2022/05/20 06:15:30;;;;;;;6.35;3.25;;;38.70;42.50;;;;;;6227576;28;20049;-82
2022/05/20 06:18:32;;;;;;;10.15;3.15;;;39.20;41.60;;;;;;6228884;28;20060;-81
2022/05/20 06:21:34;;;;;;;5.88;2.78;;;39.70;40.80;;;;;;6230004;28;20052;-82
2022/05/20 06:24:36;;;;;;;5.07;2.90;;;39.80;40.00;;;;;;6228484;28;20058;-81
2022/05/20 06:27:38;;;;;;;14.27;3.35;;;39.70;39.70;;;;;;6227677;28;20053;-82
2022/05/20 06:30:42;;;;;;;8.05;2.38;;;39.70;39.60;;;;;;6229578;28;20121;-82
2022/05/20 06:33:44;;;;;;;10.02;2.63;;;40.10;39.00;;;;;;6228937;28;20061;-82
2022/05/20 06:40:06;;;;;;;4.88;2.35;;;41.00;37.80;;;;;;6227655;28;20557;-82
2022/05/20 06:43:08;;;;;;;7.57;2.30;;;41.20;37.60;;;;;;6229693;28;20046;-81
2022/05/20 06:46:11;;;;;;;6.07;2.38;;;41.40;37.00;;;;;;6231392;28;20046;-82
2022/05/20 06:49:17;;;;;;;14.15;3.17;;;41.70;36.60;;;;;;6228702;28;20129;-83
2022/05/20 06:52:18;;;;;;;7.82;2.97;;;42.10;36.00;;;;;;6226654;28;20053;-81
2022/05/20 06:55:20;;;;;;;6.22;2.40;;;42.20;35.70;;;;;;6228311;28;20161;-82
2022/05/20 06:58:22;;;;;;;8.38;2.95;;;42.40;35.40;;;;;;6229622;28;20042;-82
2022/05/20 07:01:27;;;;;;;8.95;2.40;;;42.70;34.90;;;;;;6229153;28;20096;-82
2022/05/20 07:04:30;;;;;;;7.13;2.45;;;43.00;34.60;;;;;;6232018;28;20567;-82
2022/05/20 07:07:32;;;;;;;4.95;2.15;;;43.40;34.20;;;;;;6232922;28;20092;-82
2022/05/20 07:10:34;;;;;;;5.35;2.90;;;43.70;33.50;;;;;;6233410;28;20102;-82
2022/05/20 07:13:36;;;;;;;7.80;2.55;;;43.90;33.20;;;;;;6233820;28;20081;-82
2022/05/20 07:16:39;;;;;;;7.65;2.47;;;44.10;32.90;;;;;;6233530;28;20061;-82
2022/05/20 07:19:41;;;;;;;6.28;1.85;;;44.20;32.60;;;;;;6232694;28;20440;-82
2022/05/20 07:22:42;;;;;;;7.15;2.47;;;44.30;32.60;;;;;;6233891;28;20049;-81
2022/05/20 07:25:44;;;;;;;4.47;2.28;;;44.40;32.30;;;;;;6232528;28;20053;-82
2022/05/20 07:28:46;;;;;;;5.85;2.60;;;44.30;32.10;;;;;;6232585;28;20054;-82
2022/05/20 07:31:52;;;;;;;4.25;1.80;;;44.50;32.00;;;;;;6232026;28;20052;-82
2022/05/20 07:34:54;;;;;;;4.10;2.38;;;44.80;31.70;;;;;;6232596;28;20084;-82
2022/05/20 07:37:56;;;;;;;4.70;2.20;;;45.00;31.40;;;;;;6229426;28;20119;-84
2022/05/20 07:40:58;;;;;;;13.60;2.70;;;44.90;31.20;;;;;;6231927;28;20053;-83
2022/05/20 07:43:59;;;;;;;11.20;2.35;;;44.80;31.40;;;;;;6231220;28;20046;-83
2022/05/20 07:47:03;;;;;;;10.32;2.35;;;45.10;31.20;;;;;;6231785;28;20060;-83
2022/05/20 07:50:08;;;;;;;6.57;2.17;;;45.30;30.80;;;;;;6231683;28;20121;-83
2022/05/20 07:53:23;;;;;;;9.70;1.98;;;45.40;30.70;;;;;;6231796;28;20120;-83
2022/05/20 07:56:30;;;;;;;8.32;2.25;;;45.50;30.50;;;;;;6230723;28;20079;-83
2022/05/20 07:59:41;;;;;;;6.00;2.20;;;45.60;30.60;;;;;;6210741;28;20134;-83
2022/05/20 08:02:44;;;;;;;4.20;2.22;;;43.60;31.80;;;;;;6210150;28;20955;-83
2022/05/20 08:06:22;;;;;;;18.70;2.20;;;41.20;34.30;;;;;;6216418;28;20164;-83
2022/05/20 08:09:27;;;;;;;5.85;2.17;;;39.00;36.90;;;;;;6215907;28;20050;-81
2022/05/20 08:12:59;;;;;;;8.73;2.63;;;37.50;39.10;;;;;;6220567;28;20053;-82
2022/05/20 08:19:47;;;;;;;5.63;2.33;;;35.30;42.60;;;;;;6221840;28;20046;-82
2022/05/20 08:30:45;;;;;;;4.85;2.35;;;33.50;45.60;;;;;;6237540;28;20129;-86
2022/05/20 08:33:47;;;;;;;12.52;2.47;;;33.30;47.00;;;;;;6223555;28;20436;-85
2022/05/20 08:36:54;;;;;;;9.02;2.22;;;33.10;47.10;;;;;;6225544;28;20057;-85
2022/05/20 08:39:57;;;;;;;5.50;2.45;;;33.10;47.40;;;;;;6223458;28;20119;-86
2022/05/20 08:43:01;;;;;;;5.30;3.20;;;33.20;47.80;;;;;;6224227;28;20049;-84
2022/05/20 08:46:09;;;;;;;6.65;2.70;;;33.10;47.80;;;;;;6225899;28;20049;-85
2022/05/20 08:49:14;;;;;;;5.80;2.13;;;33.10;47.90;;;;;;6225975;28;20049;-84
2022/05/20 08:52:17;;;;;;;9.43;2.42;;;33.00;48.50;;;;;;6224105;28;20128;-84
2022/05/20 08:55:19;;;;;;;5.70;2.40;;;33.00;49.20;;;;;;6223761;28;20068;-84
2022/05/20 08:58:25;;;;;;;12.63;6.10;;;33.00;49.10;;;;;;6223845;28;20417;-84
2022/05/20 09:01:29;;;;;;;25.67;9.23;;;33.10;48.80;;;;;;6205412;28;20054;-86
2022/05/20 09:04:32;;;;;;;8.93;2.80;;;33.20;48.40;;;;;;6216529;28;20049;-84
2022/05/20 09:08:01;;;;;;;6.60;3.08;;;33.20;48.80;;;;;;6223987;28;20104;-86
2022/05/20 09:11:05;;;;;;;8.18;2.50;;;33.00;49.40;;;;;;6223213;28;20047;-86
2022/05/20 09:21:03;;;;;;;4.93;2.97;;;33.20;49.00;;;;;;6223515;28;20046;-84
2022/05/20 09:24:15;;;;;;;5.55;1.83;;;33.20;49.20;;;;;;6223151;28;20096;-83
2022/05/20 09:31:13;;;;;;;5.43;2.40;;;33.30;49.20;;;;;;6215969;28;20049;-83
2022/05/20 09:42:19;;;;;;;9.05;1.95;;;33.50;47.60;;;;;;6196082;28;20042;-83
2022/05/20 09:45:24;;;;;;;6.72;2.08;;;33.90;46.50;;;;;;6199666;28;20052;-84
2022/05/20 09:48:36;;;;;;;3.38;2.13;;;34.10;46.30;;;;;;6196778;28;20050;-84
2022/05/20 09:55:28;;;;;;;4.43;1.80;;;34.30;45.80;;;;;;6197581;28;20054;-85
2022/05/20 09:58:38;;;;;;;6.68;2.10;;;34.50;45.10;;;;;;6198265;28;20054;-84
2022/05/20 10:49:38;;;;;;;4.97;1.60;;;35.10;38.60;;;;;;6102210;29;20411;-86
2022/05/20 10:53:22;;;;;;;9.40;1.95;;;35.10;37.70;;;;;;6169077;28;20134;-85
2022/05/20 11:00:55;;;;;;;11.25;1.67;;;35.30;37.00;;;;;;6192269;28;20050;-84
2022/05/20 11:16:42;;;;;;;11.40;2.28;;;35.50;37.00;;;;;;6081331;29;20080;-84
2022/05/20 11:20:30;;;;;;;8.90;1.95;;;36.10;36.50;;;;;;6064584;28;20132;-85
2022/05/20 11:23:55;;;;;;;7.10;1.35;;;36.60;35.00;;;;;;6198530;28;20050;-84
2022/05/20 11:27:21;;;;;;;8.88;1.45;;;36.70;36.50;;;;;;6211499;28;20053;-84
2022/05/20 11:30:34;;;;;;;4.50;1.45;;;36.70;35.50;;;;;;6225383;28;20042;-84
2022/05/20 11:33:51;;;;;;;9.13;2.08;;;36.80;34.90;;;;;;6225358;28;20391;-84
2022/05/20 11:37:06;;;;;;;10.68;2.10;;;36.70;35.10;;;;;;6226135;28;20120;-84
2022/05/20 11:40:31;;;;;;;4.68;1.25;;;36.50;35.40;;;;;;6226946;28;20113;-84
2022/05/20 11:44:01;;;;;;;7.68;2.08;;;36.30;34.90;;;;;;6226289;28;20521;-84
2022/05/20 11:47:25;;;;;;;6.45;1.77;;;35.90;35.50;;;;;;6248570;28;20050;-84
2022/05/20 11:50:56;;;;;;;6.28;1.58;;;35.90;36.30;;;;;;6238026;28;20045;-83
2022/05/20 11:54:05;;;;;;;9.38;2.05;;;36.00;35.80;;;;;;6210398;28;20064;-83
2022/05/20 11:57:11;;;;;;;6.00;1.48;;;36.10;34.50;;;;;;6228848;28;20473;-84
2022/05/20 12:00:17;;;;;;;6.43;1.40;;;36.10;36.00;;;;;;6231537;28;20053;-84
2022/05/20 12:03:22;;;;;;;2.53;1.15;;;36.20;36.00;;;;;;6295014;23;20056;-82
2022/05/20 12:06:30;;;;;;;8.52;1.80;;;36.30;34.40;;;;;;6279193;28;20087;-84
2022/05/20 12:09:37;;;;;;;5.88;1.48;;;36.40;34.40;;;;;;6290887;28;20094;-81
2022/05/20 12:12:52;;;;;;;6.57;1.23;;;36.50;34.30;;;;;;6277071;28;20037;-82
2022/05/20 12:16:11;;;;;;;5.95;1.45;;;36.70;34.50;;;;;;6252758;28;20519;-86
2022/05/20 12:26:41;;;;;;;4.00;1.30;;;37.00;33.20;;;;;;6237821;28;20044;-86
2022/05/20 12:30:26;;;;;;;4.28;1.27;;;37.00;33.50;;;;;;6248952;28;20084;-85
2022/05/20 12:33:53;;;;;;;5.53;1.42;;;37.20;33.30;;;;;;6252116;28;20053;-83
2022/05/20 12:36:56;;;;;;;3.15;1.08;;;37.30;32.30;;;;;;6254520;28;20182;-85
2022/05/20 12:39:58;;;;;;;7.47;1.00;;;37.40;32.70;;;;;;6250880;28;20124;-85
2022/05/20 12:43:07;;;;;;;4.72;1.30;;;37.50;32.70;;;;;;6252076;28;20049;-84
2022/05/20 12:46:15;;;;;;;11.05;1.50;;;37.70;31.90;;;;;;6253148;28;20041;-83
2022/05/20 12:49:19;;;;;;;7.32;1.58;;;37.70;31.80;;;;;;6251300;28;20053;-84
2022/05/20 12:52:24;;;;;;;7.03;1.58;;;37.50;32.60;;;;;;6250184;28;20522;-83
2022/05/20 12:55:33;;;;;;;4.05;1.40;;;37.40;32.60;;;;;;6250796;28;20124;-82
2022/05/20 12:58:36;;;;;;;9.02;1.35;;;37.40;32.80;;;;;;6252259;28;20041;-84
2022/05/20 13:01:39;;;;;;;6.45;1.85;;;37.70;32.70;;;;;;6254297;28;20053;-83
2022/05/20 13:04:45;;;;;;;9.85;1.20;;;37.90;32.20;;;;;;6251296;28;20087;-83
2022/05/20 13:07:48;;;;;;;4.05;1.10;;;38.10;32.70;;;;;;6249669;28;20053;-85
2022/05/20 13:10:50;;;;;;;4.68;1.50;;;38.10;32.70;;;;;;6250972;28;20045;-83
2022/05/20 13:13:54;;;;;;;16.27;2.33;;;38.00;32.20;;;;;;6253854;28;20049;-82
2022/05/20 13:16:56;;;;;;;24.85;1.90;;;38.10;32.40;;;;;;6254438;28;20112;-83
2022/05/20 13:20:01;;;;;;;11.55;1.60;;;37.80;32.30;;;;;;6250375;28;20042;-83
2022/05/20 13:23:06;;;;;;;5.70;1.33;;;37.90;33.40;;;;;;6250792;28;20509;-84
2022/05/20 13:26:19;;;;;;;4.22;1.27;;;38.00;33.00;;;;;;6249347;28;20115;-84
2022/05/20 13:29:22;;;;;;;6.90;0.93;;;37.80;33.80;;;;;;6248750;28;20053;-84
2022/05/20 13:32:30;;;;;;;5.13;1.20;;;37.70;33.50;;;;;;6248254;28;20084;-84
2022/05/20 13:35:40;;;;;;;11.23;1.88;;;37.40;33.60;;;;;;6249087;28;20057;-84
2022/05/20 13:38:44;;;;;;;5.85;1.20;;;37.20;33.70;;;;;;6251687;28;20049;-84
2022/05/20 13:41:48;;;;;;;7.45;1.52;;;37.00;34.10;;;;;;6252598;28;20053;-84
2022/05/20 13:44:50;;;;;;;4.40;1.50;;;36.80;35.90;;;;;;6250827;28;20053;-87
2022/05/20 13:51:13;;;;;;;7.03;1.70;;;36.10;36.20;;;;;;6249963;28;20041;-83
2022/05/20 13:54:19;;;;;;;6.60;1.80;;;35.80;36.30;;;;;;6252623;28;20073;-83
2022/05/20 13:57:23;;;;;;;5.95;2.05;;;35.40;36.10;;;;;;6228461;28;20460;-84
2022/05/20 14:00:42;;;;;;;8.30;1.30;;;35.00;36.70;;;;;;6227239;28;20057;-84
2022/05/20 14:03:48;;;;;;;3.45;1.58;;;34.80;37.60;;;;;;6231407;28;20048;-83
2022/05/20 14:06:53;;;;;;;4.75;1.67;;;34.60;38.40;;;;;;6227130;28;20104;-85
2022/05/20 14:09:57;;;;;;;7.50;1.73;;;34.50;38.80;;;;;;6229332;28;20053;-84
2022/05/20 14:13:02;;;;;;;10.70;1.95;;;34.40;39.30;;;;;;6226979;28;20406;-85
2022/05/20 14:16:14;;;;;;;7.43;2.05;;;34.20;39.60;;;;;;6226416;28;20157;-83
2022/05/20 14:19:20;;;;;;;12.10;1.80;;;33.80;40.40;;;;;;6225856;28;20046;-83
2022/05/20 14:22:28;;;;;;;31.33;2.85;;;33.50;41.40;;;;;;6226774;28;20402;-84
2022/05/20 15:36:58;;;;;;;6.15;2.72;;;26.30;87.00;;;;;;6079751;29;20583;-83
2022/05/20 15:40:02;;;;;;;;;;;26.00;87.10;;;;;;6181185;28;20117;-85
2022/05/20 15:43:04;;;;;;;8.50;2.88;;;26.00;87.90;;;;;;6201834;28;20373;-84
2022/05/20 15:46:06;;;;;;;4.57;2.58;;;26.10;86.00;;;;;;6202361;28;20049;-87
2022/05/20 15:49:09;;;;;;;10.55;3.17;;;26.20;86.40;;;;;;6202300;28;20058;-85
2022/05/20 15:52:13;;;;;;;5.82;2.58;;;26.10;87.90;;;;;;6201466;28;20129;-85
2022/05/20 15:55:20;;;;;;;8.68;3.15;;;26.00;88.60;;;;;;6201670;28;20524;-85
2022/05/20 15:58:24;;;;;;;7.47;2.83;;;25.60;89.30;;;;;;6201759;28;20049;-85
2022/05/20 16:01:26;;;;;;;8.43;3.60;;;25.10;90.70;;;;;;6203567;28;20065;-87
2022/05/20 16:07:46;;;;;;;8.00;3.30;;;24.40;92.70;;;;;;6219438;28;20058;-84
2022/05/20 16:10:52;;;;;;;9.82;3.33;;;24.00;93.90;;;;;;6224925;28;20438;-86
2022/05/20 16:13:54;;;;;;;15.75;3.13;;;24.00;94.10;;;;;;6238207;28;20130;-84
2022/05/20 16:16:56;;;;;;;12.57;3.53;;;24.30;94.30;;;;;;6241242;28;20061;-83
2022/05/20 16:19:59;;;;;;;6.65;2.72;;;24.60;93.90;;;;;;6231719;28;20077;-84
2022/05/20 16:23:02;;;;;;;10.70;5.07;;;25.00;93.00;;;;;;6231827;28;20068;-86
2022/05/20 16:26:04;;;;;;;7.28;3.00;;;25.40;91.60;;;;;;6230137;28;20061;-83
2022/05/20 16:29:07;;;;;;;8.70;2.60;;;25.70;91.20;;;;;;6232674;28;20113;-84
2022/05/20 16:32:09;;;;;;;6.43;2.38;;;25.90;91.30;;;;;;6229800;28;20144;-86
2022/05/20 16:38:43;;;;;;;7.22;2.47;;;27.10;87.10;;;;;;6201257;28;20061;-85
2022/05/20 16:41:45;;;;;;;9.50;2.38;;;27.60;84.00;;;;;;6226599;28;20092;-85
2022/05/20 16:44:46;;;;;;;9.60;2.50;;;27.90;84.00;;;;;;6225696;28;20509;-85
2022/05/20 16:47:53;;;;;;;7.32;2.03;;;28.10;82.50;;;;;;6223969;28;20416;-85
2022/05/20 16:50:58;;;;;;;8.27;2.57;;;28.30;82.00;;;;;;6225766;28;20050;-85
2022/05/20 16:54:04;;;;;;;9.75;3.00;;;28.40;82.10;;;;;;6229837;28;20049;-84
2022/05/20 17:04:18;;;;;;;8.32;3.00;;;28.70;79.70;;;;;;6227422;28;20042;-86
2022/05/20 17:11:33;;;;;;;8.23;3.25;;;28.60;78.40;;;;;;6181444;28;20054;-86
2022/05/20 17:14:35;;;;;;;11.13;4.30;;;28.30;78.50;;;;;;6201428;28;20061;-85
2022/05/20 17:17:37;;;;;;;7.63;2.70;;;28.10;79.20;;;;;;6222052;28;20050;-83
2022/05/20 17:20:39;;;;;;;9.77;3.35;;;27.90;80.20;;;;;;6231743;28;20127;-85
2022/05/20 17:27:05;;;;;;;12.57;2.80;;;27.50;84.70;;;;;;6231027;28;20045;-84
2022/05/20 17:30:08;;;;;;;6.32;2.88;;;27.20;87.30;;;;;;6230425;28;20046;-83
2022/05/20 17:33:10;;;;;;;10.02;3.72;;;27.00;88.40;;;;;;6218497;28;20140;-84
2022/05/20 17:36:12;;;;;;;5.57;3.13;;;26.90;89.80;;;;;;6257769;28;20097;-84
2022/05/20 17:39:14;;;;;;;16.95;4.15;;;26.90;90.00;;;;;;6230436;28;20100;-83
2022/05/20 17:42:18;;;;;;;10.27;3.65;;;27.00;90.10;;;;;;6229851;28;20042;-82
2022/05/20 17:45:19;;;;;;;13.10;3.08;;;27.10;90.10;;;;;;6234350;28;20124;-83
2022/05/20 17:48:21;;;;;;;10.80;3.03;;;27.10;89.80;;;;;;6230984;28;20045;-84
2022/05/20 17:51:23;;;;;;;11.15;3.45;;;27.10;88.90;;;;;;6230146;28;20461;-83
2022/05/20 17:54:26;;;;;;;10.52;3.65;;;27.00;89.00;;;;;;6231944;28;20045;-82
2022/05/20 17:57:30;;;;;;;9.73;3.30;;;26.80;89.00;;;;;;6233136;28;20057;-82
2022/05/20 18:00:32;;;;;;;6.07;2.95;;;26.70;89.30;;;;;;6235958;28;20049;-83
2022/05/20 18:03:34;;;;;;;7.20;3.22;;;26.60;90.10;;;;;;6287674;22;20047;-82
2022/05/20 18:06:36;;;;;;;10.57;2.83;;;26.40;90.80;;;;;;6256073;28;20050;-84
2022/05/20 18:09:38;;;;;;;7.45;3.10;;;26.30;90.90;;;;;;6250316;28;20050;-84
2022/05/20 18:12:43;;;;;;;6.95;3.85;;;26.20;91.40;;;;;;6245901;28;20045;-85
2022/05/20 18:15:45;;;;;;;8.15;2.90;;;26.10;91.70;;;;;;6251796;28;20050;-83
2022/05/20 18:18:46;;;;;;;9.65;3.47;;;25.90;92.10;;;;;;6257728;28;20104;-84
2022/05/20 18:21:48;;;;;;;20.27;4.28;;;25.80;92.60;;;;;;6262360;28;20068;-84
2022/05/20 18:24:52;;;;;;;7.68;3.28;;;25.50;93.00;;;;;;6259873;28;20113;-83
2022/05/20 18:27:55;;;;;;;5.72;4.00;;;25.40;93.30;;;;;;6260270;28;20103;-84
2022/05/20 18:30:59;;;;;;;11.15;3.35;;;25.30;93.40;;;;;;6258216;28;20053;-83
2022/05/20 18:34:01;;;;;;;7.78;3.45;;;25.30;93.40;;;;;;6261483;28;20088;-83
2022/05/20 18:40:24;;;;;;;14.02;4.53;;;25.40;93.50;;;;;;6247604;28;20050;-84
2022/05/20 18:43:28;;;;;;;10.63;4.40;;;25.40;93.60;;;;;;6236608;28;20132;-85
2022/05/20 18:46:30;;;;;;;7.50;3.35;;;25.30;93.80;;;;;;6244856;28;20100;-83
2022/05/20 18:49:32;;;;;;;6.85;2.53;;;25.30;92.90;;;;;;6255519;28;20605;-83
2022/05/20 18:53:47;;;;;;;3.40;1.42;;;25.30;90.20;;;;;;6252488;28;20054;-85
2022/05/20 18:56:57;;;;;;;3.80;1.55;;;25.10;80.60;;;;;;6182314;28;20049;-82
2022/05/20 19:00:00;;;;;;;3.30;1.63;;;25.00;81.40;;;;;;6258650;28;20049;-82
2022/05/20 19:14:06;;;;;;;6.13;1.77;;;23.70;87.60;;;;;;6490052;23;20543;-83
2022/05/20 19:17:10;;;;;;;4.80;1.48;;;23.60;87.90;;;;;;6259317;28;20072;-83
2022/05/20 19:20:56;;;;;;;15.82;1.92;;;23.50;88.60;;;;;;6257586;28;20049;-85
2022/05/20 19:23:59;;;;;;;10.38;2.28;;;23.40;89.30;;;;;;6266584;28;20052;-83
2022/05/20 19:34:57;;;;;;;10.77;2.17;;;23.40;90.10;;;;;;6253619;28;20512;-80
2022/05/20 19:37:59;;;;;;;7.13;2.33;;;23.30;90.30;;;;;;6257145;28;20045;-80
2022/05/20 19:41:00;;;;;;;8.55;2.60;;;23.20;90.70;;;;;;6258722;28;20527;-80
2022/05/20 19:44:03;;;;;;;5.70;1.80;;;23.10;91.00;;;;;;6260029;28;20053;-81
2022/05/20 19:47:05;;;;;;;4.82;1.95;;;23.00;91.20;;;;;;6248078;28;20109;-81
2022/05/20 19:50:09;;;;;;;7.63;2.10;;;23.00;91.30;;;;;;6245641;28;20207;-80
2022/05/20 19:53:12;;;;;;;11.10;2.38;;;23.00;91.30;;;;;;6258462;28;20105;-81
2022/05/20 19:56:15;;;;;;;5.70;2.20;;;23.00;91.40;;;;;;6272760;28;20092;-80
2022/05/20 20:02:36;;;;;;;7.63;2.45;;;22.80;91.80;;;;;;6259135;28;20416;-81
2022/05/20 20:05:40;;;;;;;5.32;2.75;;;22.80;91.90;;;;;;6259370;28;20049;-81
2022/05/20 20:08:42;;;;;;;6.10;2.47;;;22.80;91.90;;;;;;6258393;28;20041;-80
2022/05/20 20:11:44;;;;;;;7.90;2.70;;;22.80;92.00;;;;;;6251138;28;20050;-81